Time;durP1;ratioP1;P1;durP2;ratioP2;P2;SDS_P1;SDS_P2;PMS_P1;PMS_P2;Temp;Humidity;BMP_temperature;BMP_pressure;BME280_temperature;BME280_humidity;BME280_pressure;Samples;Min_cycle;Max_cycle;Signal;HPM_P1;HPM_P2
2024/03/19 00:00:32;;;;;;;9.93;5.50;;;0.10;99.90;;;;;;4162168;28;20274;-55
2024/03/19 00:02:34;;;;;;;9.50;5.23;;;0.10;99.90;;;;;;4160818;28;20309;-56
2024/03/19 00:04:35;;;;;;;9.07;4.77;;;0.10;99.90;;;;;;4161579;28;20624;-54
2024/03/19 00:06:37;;;;;;;9.97;5.07;;;0.10;99.90;;;;;;4160764;28;20352;-56
2024/03/19 00:08:38;;;;;;;11.47;5.23;;;0.10;99.90;;;;;;4161716;28;20336;-55
2024/03/19 00:10:39;;;;;;;12.57;6.30;;;0.10;99.90;;;;;;4160985;28;20771;-57
2024/03/19 00:12:40;;;;;;;10.17;5.23;;;0.10;99.90;;;;;;4162220;28;20329;-54
2024/03/19 00:14:42;;;;;;;10.20;5.27;;;0.00;99.90;;;;;;4159502;28;20321;-56
2024/03/19 00:16:43;;;;;;;10.20;5.07;;;0.00;99.90;;;;;;4160098;28;20328;-53
2024/03/19 00:18:45;;;;;;;8.17;5.37;;;0.00;99.90;;;;;;4159373;28;20255;-55
2024/03/19 00:20:46;;;;;;;9.90;5.50;;;-0.10;99.90;;;;;;4159384;28;20270;-57
2024/03/19 00:22:48;;;;;;;10.10;5.77;;;0.00;99.90;;;;;;4160173;28;20312;-52
2024/03/19 00:24:50;;;;;;;13.07;5.97;;;-0.10;99.90;;;;;;4160358;28;20286;-52
2024/03/19 00:26:51;;;;;;;12.50;5.83;;;-0.10;99.90;;;;;;4159719;28;20287;-51
2024/03/19 00:28:53;;;;;;;9.83;5.67;;;-0.10;99.90;;;;;;4158833;28;20275;-53
2024/03/19 00:30:55;;;;;;;12.57;5.40;;;-0.10;99.90;;;;;;4158615;28;20694;-55
2024/03/19 00:32:56;;;;;;;13.03;6.20;;;-0.10;99.90;;;;;;4159232;28;20271;-56
2024/03/19 00:34:57;;;;;;;13.07;6.37;;;-0.20;99.90;;;;;;4161580;28;20262;-55
2024/03/19 00:36:59;;;;;;;15.57;6.93;;;-0.20;99.90;;;;;;4160200;28;20833;-60
2024/03/19 00:39:00;;;;;;;11.77;5.83;;;-0.20;99.90;;;;;;4161209;28;20742;-55
2024/03/19 00:41:01;;;;;;;16.67;6.37;;;-0.20;99.90;;;;;;4158041;28;20254;-54
2024/03/19 00:43:03;;;;;;;13.47;6.00;;;-0.30;99.90;;;;;;4160104;28;20667;-51
2024/03/19 00:45:05;;;;;;;11.77;5.80;;;-0.30;99.90;;;;;;4157956;28;20758;-57
2024/03/19 00:47:06;;;;;;;11.77;6.23;;;-0.30;99.90;;;;;;4157531;28;20324;-57
2024/03/19 00:49:08;;;;;;;14.10;6.37;;;-0.30;99.90;;;;;;4157653;28;20801;-58
2024/03/19 00:51:09;;;;;;;14.77;7.40;;;-0.30;99.90;;;;;;4161068;28;20286;-56
2024/03/19 00:53:10;;;;;;;15.37;7.57;;;-0.40;99.90;;;;;;4160658;28;20251;-57
2024/03/19 00:55:12;;;;;;;14.07;7.63;;;-0.50;99.90;;;;;;4159642;28;20267;-54
2024/03/19 00:57:13;;;;;;;17.90;7.40;;;-0.50;99.90;;;;;;4160189;28;20332;-58
2024/03/19 00:59:15;;;;;;;17.37;7.83;;;-0.60;99.90;;;;;;4159319;28;20309;-55
2024/03/19 01:01:16;;;;;;;15.70;7.50;;;-0.60;99.90;;;;;;4158546;28;20263;-53
2024/03/19 01:03:19;;;;;;;14.87;8.00;;;-0.70;99.90;;;;;;4142330;28;20283;-55
2024/03/19 01:05:20;;;;;;;16.40;8.00;;;-0.70;99.90;;;;;;4161164;28;20652;-52
2024/03/19 01:07:22;;;;;;;11.73;6.83;;;-0.70;99.90;;;;;;4158177;28;20317;-57
2024/03/19 01:09:23;;;;;;;14.90;6.93;;;-0.80;99.90;;;;;;4159228;28;20321;-56
2024/03/19 01:11:25;;;;;;;11.97;6.30;;;-0.70;99.90;;;;;;4157429;28;20286;-52
2024/03/19 01:13:26;;;;;;;10.97;6.60;;;-0.80;99.90;;;;;;4160932;28;20271;-55
2024/03/19 01:15:28;;;;;;;13.07;6.27;;;-0.70;99.90;;;;;;4158358;28;20366;-51
2024/03/19 01:17:29;;;;;;;14.67;6.43;;;-0.70;99.90;;;;;;4158769;28;20278;-54
2024/03/19 01:19:31;;;;;;;15.13;6.13;;;-0.70;99.90;;;;;;4157202;28;20247;-55
2024/03/19 01:21:33;;;;;;;12.30;6.03;;;-0.70;99.90;;;;;;4156949;28;21713;-52
2024/03/19 01:23:34;;;;;;;11.20;6.17;;;-0.70;99.90;;;;;;4159829;28;20352;-59
2024/03/19 01:25:36;;;;;;;14.77;5.90;;;-0.70;99.90;;;;;;4157983;28;20325;-57
2024/03/19 01:27:37;;;;;;;12.40;6.20;;;-0.70;99.90;;;;;;4160378;28;20279;-52
2024/03/19 01:29:38;;;;;;;12.57;6.73;;;-0.80;99.90;;;;;;4157324;28;20763;-50
2024/03/19 01:31:39;;;;;;;13.20;6.53;;;-0.80;99.90;;;;;;4158788;28;20671;-57
2024/03/19 01:33:41;;;;;;;11.03;5.93;;;-0.80;99.90;;;;;;4159652;28;20275;-57
2024/03/19 01:35:42;;;;;;;12.80;6.83;;;-0.80;99.90;;;;;;4160287;28;20267;-54
2024/03/19 01:37:43;;;;;;;10.73;5.83;;;-0.80;99.90;;;;;;4159428;28;20655;-55
2024/03/19 01:39:45;;;;;;;14.43;6.40;;;-0.80;99.90;;;;;;4157080;28;20408;-57
2024/03/19 01:41:46;;;;;;;16.23;5.90;;;-0.80;99.90;;;;;;4159270;28;20658;-54
2024/03/19 01:43:48;;;;;;;13.37;6.77;;;-0.80;99.90;;;;;;4161607;28;20271;-55
2024/03/19 01:46:17;;;;;;;15.57;6.90;;;-0.80;99.90;;;;;;4160989;28;20706;-55
2024/03/19 01:48:18;;;;;;;13.23;6.13;;;-0.90;99.90;;;;;;4161531;28;20263;-51
2024/03/19 01:50:19;;;;;;;12.40;5.73;;;-0.90;99.90;;;;;;4162865;28;20294;-54
2024/03/19 01:52:21;;;;;;;10.73;5.93;;;-0.90;99.90;;;;;;4163038;28;20604;-56
2024/03/19 01:54:23;;;;;;;11.70;6.00;;;-0.90;99.90;;;;;;4160874;28;20271;-53
2024/03/19 01:56:24;;;;;;;12.93;5.73;;;-0.90;99.90;;;;;;4162055;28;20283;-55
2024/03/19 01:58:28;;;;;;;10.90;5.13;;;-0.90;99.90;;;;;;4162332;28;20808;-53
2024/03/19 02:00:29;;;;;;;10.17;5.40;;;-0.90;99.90;;;;;;4160700;28;20274;-50
2024/03/19 02:02:34;;;;;;;10.33;5.50;;;-0.90;99.90;;;;;;4161733;28;20678;-58
2024/03/19 02:04:36;;;;;;;9.83;5.47;;;-0.90;99.90;;;;;;4163584;28;20373;-50
2024/03/19 02:06:38;;;;;;;8.60;5.53;;;-0.90;99.90;;;;;;4163543;28;20259;-53
2024/03/19 02:08:39;;;;;;;11.90;5.97;;;-0.90;99.90;;;;;;4162348;28;20360;-56
2024/03/19 02:10:41;;;;;;;12.70;6.47;;;-0.90;99.90;;;;;;4160997;28;20410;-54
2024/03/19 02:12:42;;;;;;;13.23;6.00;;;-0.90;99.90;;;;;;4159730;28;20274;-57
2024/03/19 02:14:44;;;;;;;10.70;5.53;;;-0.90;99.90;;;;;;4161216;28;20325;-52
2024/03/19 02:16:45;;;;;;;13.37;6.50;;;-1.00;99.90;;;;;;4161548;28;20853;-58
2024/03/19 02:18:57;;;;;;;12.27;6.00;;;-1.00;99.90;;;;;;4161643;28;20263;-57
2024/03/19 02:20:59;;;;;;;9.67;5.70;;;-1.00;99.90;;;;;;4159851;28;20255;-48
2024/03/19 02:23:00;;;;;;;11.97;6.43;;;-1.10;99.90;;;;;;4162297;28;20279;-53
2024/03/19 02:25:01;;;;;;;13.47;6.03;;;-1.10;99.90;;;;;;4161366;28;20341;-56
2024/03/19 02:27:02;;;;;;;14.17;6.83;;;-1.10;99.90;;;;;;4163329;28;20352;-54
2024/03/19 02:29:04;;;;;;;10.63;5.90;;;-1.20;99.90;;;;;;4161668;28;20716;-52
2024/03/19 02:31:05;;;;;;;14.13;6.37;;;-1.20;99.90;;;;;;4159717;28;20778;-54
2024/03/19 02:33:06;;;;;;;12.13;5.63;;;-1.20;99.90;;;;;;4157662;28;20293;-56
2024/03/19 02:35:08;;;;;;;13.90;7.07;;;-1.20;99.90;;;;;;4159876;28;20344;-56
2024/03/19 02:37:09;;;;;;;15.90;7.17;;;-1.30;99.90;;;;;;4160901;28;20282;-55
2024/03/19 02:39:12;;;;;;;15.07;7.57;;;-1.30;99.90;;;;;;4160973;28;20759;-53
2024/03/19 02:41:13;;;;;;;13.80;6.90;;;-1.40;99.90;;;;;;4162593;28;20274;-58
2024/03/19 02:43:14;;;;;;;14.00;7.50;;;-1.40;99.90;;;;;;4162512;28;20592;-57
2024/03/19 02:45:17;;;;;;;16.03;7.67;;;-1.40;99.90;;;;;;4163583;28;20674;-51
2024/03/19 02:47:18;;;;;;;18.77;7.80;;;-1.40;99.90;;;;;;4161850;28;20313;-55
2024/03/19 02:49:20;;;;;;;15.40;7.10;;;-1.40;99.90;;;;;;4161909;28;20317;-57
2024/03/19 02:51:21;;;;;;;15.97;7.47;;;-1.50;99.90;;;;;;4159861;28;20364;-52
2024/03/19 02:53:23;;;;;;;14.93;7.23;;;-1.50;99.90;;;;;;4159605;28;20262;-58
2024/03/19 02:55:24;;;;;;;13.37;7.00;;;-1.50;99.90;;;;;;4159986;28;20766;-55
2024/03/19 02:57:26;;;;;;;12.07;6.60;;;-1.60;99.90;;;;;;4163234;28;20275;-57
2024/03/19 02:59:28;;;;;;;15.23;6.83;;;-1.60;99.90;;;;;;4161262;28;20682;-55
2024/03/19 03:01:29;;;;;;;16.43;7.93;;;-1.70;99.90;;;;;;4160504;28;20348;-57
2024/03/19 03:03:30;;;;;;;14.63;7.10;;;-1.70;99.90;;;;;;4159629;28;20255;-56
2024/03/19 03:05:31;;;;;;;15.17;7.67;;;-1.70;99.90;;;;;;4160376;28;20325;-54
2024/03/19 03:07:33;;;;;;;15.87;7.17;;;-1.70;99.90;;;;;;4160073;28;20297;-58
2024/03/19 03:09:34;;;;;;;18.27;7.90;;;-1.70;99.90;;;;;;4159620;28;20279;-56
2024/03/19 03:11:36;;;;;;;15.60;8.00;;;-1.70;99.90;;;;;;4159599;28;20361;-56
2024/03/19 03:13:37;;;;;;;16.67;7.27;;;-1.80;99.90;;;;;;4159171;28;20271;-58
2024/03/19 03:15:39;;;;;;;15.77;7.90;;;-1.80;99.90;;;;;;4161778;28;20270;-58
2024/03/19 03:17:40;;;;;;;18.00;7.73;;;-1.80;99.90;;;;;;4159749;28;20263;-56
2024/03/19 03:19:41;;;;;;;15.17;7.63;;;-1.80;99.90;;;;;;4160814;28;20259;-59
2024/03/19 03:21:43;;;;;;;18.40;8.60;;;-1.90;99.90;;;;;;4160001;28;20321;-58
2024/03/19 03:23:44;;;;;;;15.37;7.53;;;-1.90;99.90;;;;;;4160203;28;20620;-54
2024/03/19 03:25:45;;;;;;;14.67;6.90;;;-1.90;99.90;;;;;;4159878;28;20368;-56
2024/03/19 03:27:47;;;;;;;11.80;6.70;;;-2.00;99.90;;;;;;4160878;28;20613;-54
2024/03/19 03:29:48;;;;;;;16.57;7.17;;;-2.00;99.90;;;;;;4143556;28;20260;-56
2024/03/19 03:31:50;;;;;;;12.17;6.10;;;-2.00;99.90;;;;;;4159790;28;20302;-57
2024/03/19 03:33:51;;;;;;;14.47;6.50;;;-2.00;99.90;;;;;;4159594;28;20255;-57
2024/03/19 03:35:52;;;;;;;14.00;6.47;;;-2.00;99.90;;;;;;4161989;28;20324;-58
2024/03/19 03:37:54;;;;;;;13.10;6.30;;;-2.00;99.90;;;;;;4160869;28;20294;-56
2024/03/19 03:39:56;;;;;;;10.60;6.37;;;-2.00;99.90;;;;;;4160040;28;20321;-56
2024/03/19 03:41:57;;;;;;;12.20;6.00;;;-2.00;99.90;;;;;;4159608;28;20316;-58
2024/03/19 03:43:59;;;;;;;10.70;6.00;;;-1.90;99.90;;;;;;4160233;28;20266;-58
2024/03/19 03:46:00;;;;;;;10.83;5.43;;;-1.90;99.90;;;;;;4160813;28;20674;-54
2024/03/19 03:48:01;;;;;;;16.57;6.90;;;-1.90;99.90;;;;;;4158611;28;20275;-54
2024/03/19 03:50:03;;;;;;;11.93;6.70;;;-1.90;99.90;;;;;;4159553;28;20362;-56
2024/03/19 03:52:04;;;;;;;14.93;7.13;;;-1.90;99.90;;;;;;4159225;28;20303;-54
2024/03/19 03:54:06;;;;;;;11.20;5.80;;;-1.90;99.90;;;;;;4160121;28;20337;-56
2024/03/19 03:56:07;;;;;;;13.67;5.73;;;-1.90;99.90;;;;;;4160147;28;20743;-55
2024/03/19 03:58:08;;;;;;;13.10;5.80;;;-1.90;99.90;;;;;;4161971;28;20662;-53
2024/03/19 04:00:11;;;;;;;11.03;5.27;;;-1.90;99.90;;;;;;4159220;28;20682;-57
2024/03/19 04:02:13;;;;;;;12.23;5.77;;;-1.90;99.90;;;;;;4160420;28;20312;-54
2024/03/19 04:04:14;;;;;;;11.87;5.70;;;-1.90;99.90;;;;;;4158196;28;20333;-57
2024/03/19 04:06:16;;;;;;;16.77;5.77;;;-1.90;99.90;;;;;;4157827;28;20313;-51
2024/03/19 04:08:18;;;;;;;11.20;5.53;;;-1.90;99.90;;;;;;4158552;28;20345;-53
2024/03/19 04:10:19;;;;;;;14.07;6.30;;;-1.80;99.90;;;;;;4159494;28;20255;-57
2024/03/19 04:12:20;;;;;;;12.77;5.90;;;-1.80;99.90;;;;;;4157748;28;20305;-57
2024/03/19 04:14:22;;;;;;;11.50;6.17;;;-1.80;99.90;;;;;;4158636;28;20271;-60
2024/03/19 04:16:23;;;;;;;17.80;7.30;;;-1.80;99.90;;;;;;4161130;28;20374;-56
2024/03/19 04:18:24;;;;;;;13.10;5.63;;;-1.80;99.90;;;;;;4158338;28;20274;-57
2024/03/19 04:20:25;;;;;;;14.37;5.37;;;-1.80;99.90;;;;;;4159245;28;20271;-53
2024/03/19 04:22:27;;;;;;;11.17;5.57;;;-1.80;99.90;;;;;;4160229;28;20266;-57
2024/03/19 04:24:28;;;;;;;12.37;6.10;;;-1.80;99.90;;;;;;4159722;28;20747;-56
2024/03/19 04:26:29;;;;;;;9.50;5.63;;;-1.80;99.90;;;;;;4159229;28;20674;-59
2024/03/19 04:28:31;;;;;;;16.07;7.03;;;-1.80;99.90;;;;;;4160526;28;20274;-56
2024/03/19 04:30:32;;;;;;;13.23;6.60;;;-1.80;99.90;;;;;;4158983;28;20329;-54
2024/03/19 04:32:33;;;;;;;10.50;5.57;;;-1.80;99.90;;;;;;4160853;28;20287;-56
2024/03/19 04:34:34;;;;;;;13.10;6.23;;;-1.80;99.90;;;;;;4158338;28;20271;-55
2024/03/19 04:47:12;;;;;;;14.70;5.82;;;-1.80;99.90;;;;;;4198112;28;20446;-55
2024/03/19 04:49:13;;;;;;;15.77;7.20;;;-1.40;99.90;;;;;;4195589;28;20044;-57
2024/03/19 04:51:15;;;;;;;14.50;6.70;;;-1.10;99.90;;;;;;4196264;28;20330;-54
2024/03/19 04:53:16;;;;;;;15.33;6.73;;;-0.70;99.90;;;;;;4196399;28;20269;-57
2024/03/19 04:55:17;;;;;;;13.47;6.07;;;-0.20;99.90;;;;;;4193875;28;20370;-56
2024/03/19 04:57:19;;;;;;;14.20;6.03;;;0.10;99.90;;;;;;4198858;28;20346;-55
2024/03/19 04:59:20;;;;;;;13.83;6.50;;;0.40;99.90;;;;;;4195724;28;20343;-56
2024/03/19 05:01:22;;;;;;;21.70;6.50;;;0.90;99.90;;;;;;4196490;28;20286;-59
2024/03/19 05:03:23;;;;;;;11.33;6.00;;;1.30;99.90;;;;;;4198280;28;20616;-51
2024/03/19 05:05:24;;;;;;;14.23;6.00;;;1.70;99.90;;;;;;4194122;28;20313;-55
2024/03/19 05:07:26;;;;;;;18.00;6.47;;;2.10;99.90;;;;;;4191188;28;20327;-50
2024/03/19 05:09:27;;;;;;;16.37;6.90;;;2.30;99.90;;;;;;4192647;28;20644;-59
2024/03/19 05:11:29;;;;;;;9.47;5.77;;;2.60;99.90;;;;;;4202308;28;20319;-57
2024/03/19 05:13:30;;;;;;;11.93;6.63;;;3.10;99.90;;;;;;4197765;28;20815;-57
2024/03/19 05:15:32;;;;;;;11.23;6.43;;;3.60;99.90;;;;;;4195000;28;20766;-54
2024/03/19 05:17:33;;;;;;;12.47;6.37;;;4.10;99.90;;;;;;4195910;28;20257;-54
2024/03/19 05:19:34;;;;;;;13.13;6.30;;;4.40;99.90;;;;;;4196103;28;20249;-56
2024/03/19 05:21:36;;;;;;;10.60;5.63;;;4.80;99.90;;;;;;4193160;28;20319;-55
2024/03/19 05:23:37;;;;;;;10.23;6.90;;;5.10;99.90;;;;;;4199665;28;20342;-57
2024/03/19 05:25:39;;;;;;;11.17;6.73;;;5.50;99.90;;;;;;4201916;28;20383;-51
2024/03/19 05:27:41;;;;;;;14.03;6.97;;;6.00;99.90;;;;;;4204568;28;20273;-56
2024/03/19 05:29:42;;;;;;;13.53;6.63;;;6.40;99.90;;;;;;4200132;28;20048;-54
2024/03/19 05:31:44;;;;;;;13.73;7.17;;;6.50;99.90;;;;;;4174884;28;20040;-55
2024/03/19 05:33:45;;;;;;;11.20;6.73;;;6.50;99.90;;;;;;4197958;28;20480;-55
2024/03/19 05:35:46;;;;;;;16.43;7.20;;;6.80;99.90;;;;;;4197090;28;20044;-54
2024/03/19 05:37:48;;;;;;;15.13;7.23;;;7.00;99.90;;;;;;4195989;28;20062;-54
2024/03/19 05:39:49;;;;;;;12.10;6.97;;;7.30;99.90;;;;;;4194551;28;20078;-54
2024/03/19 05:41:50;;;;;;;11.33;6.10;;;7.70;99.90;;;;;;4196032;28;20032;-51
2024/03/19 05:43:52;;;;;;;13.00;6.70;;;8.10;99.90;;;;;;4195395;28;20037;-48
2024/03/19 05:45:55;;;;;;;15.60;7.17;;;8.70;99.90;;;;;;4194439;28;20386;-55
2024/03/19 05:47:57;;;;;;;19.57;8.87;;;9.00;99.90;;;;;;4190914;28;20049;-51
2024/03/19 05:49:58;;;;;;;17.90;7.60;;;9.30;99.60;;;;;;4179319;28;20033;-53
2024/03/19 05:51:59;;;;;;;10.87;6.87;;;9.30;98.80;;;;;;4179839;28;20535;-53
2024/03/19 05:54:01;;;;;;;12.80;6.60;;;9.40;98.40;;;;;;4193542;28;20373;-54
2024/03/19 05:56:04;;;;;;;9.50;6.00;;;9.70;98.40;;;;;;4195903;28;20048;-50
2024/03/19 05:58:05;;;;;;;16.83;6.97;;;9.60;97.10;;;;;;4190360;28;20078;-50
2024/03/19 06:00:10;;;;;;;10.73;5.93;;;9.60;97.50;;;;;;4195493;28;20082;-53
2024/03/19 06:02:11;;;;;;;10.80;5.87;;;9.30;96.90;;;;;;4181761;28;20346;-53
2024/03/19 06:04:13;;;;;;;12.37;6.40;;;9.70;96.90;;;;;;4179897;28;20095;-53
2024/03/19 06:06:14;;;;;;;10.47;6.27;;;10.10;96.80;;;;;;4178147;28;20045;-54
2024/03/19 06:08:15;;;;;;;14.90;6.60;;;10.50;95.90;;;;;;4179461;28;20037;-58
2024/03/19 06:10:17;;;;;;;12.97;6.73;;;10.60;95.10;;;;;;4178733;28;20036;-52
2024/03/19 06:12:18;;;;;;;13.13;5.53;;;10.80;94.90;;;;;;4180248;28;20017;-57
2024/03/19 06:14:20;;;;;;;8.73;5.30;;;11.00;94.30;;;;;;4188611;28;20541;-52
2024/03/19 06:16:21;;;;;;;10.03;4.97;;;11.10;93.60;;;;;;4195215;28;20036;-54
2024/03/19 06:18:22;;;;;;;7.67;4.87;;;10.80;92.60;;;;;;4195405;28;20043;-50
2024/03/19 06:20:24;;;;;;;8.07;4.17;;;10.70;92.50;;;;;;4194879;28;20029;-52
2024/03/19 06:22:26;;;;;;;10.43;4.30;;;10.40;92.00;;;;;;4195261;28;20098;-50
2024/03/19 06:24:27;;;;;;;9.17;3.90;;;9.70;91.30;;;;;;4194358;28;20033;-52
2024/03/19 06:26:29;;;;;;;7.20;4.30;;;9.80;92.00;;;;;;4195482;28;20041;-51
2024/03/19 06:28:30;;;;;;;6.70;4.37;;;9.80;91.70;;;;;;4192764;28;20078;-51
2024/03/19 06:30:32;;;;;;;6.30;4.00;;;9.90;91.50;;;;;;4195433;28;20036;-56
2024/03/19 06:32:34;;;;;;;7.60;4.43;;;10.20;91.10;;;;;;4194240;28;20032;-49
2024/03/19 06:34:35;;;;;;;9.10;4.27;;;10.60;91.00;;;;;;4195753;28;20158;-51
2024/03/19 06:36:38;;;;;;;5.67;4.07;;;10.30;90.70;;;;;;4194345;28;20037;-50
2024/03/19 06:38:39;;;;;;;9.43;4.60;;;10.50;90.70;;;;;;4195373;28;20105;-56
2024/03/19 06:40:40;;;;;;;7.70;4.03;;;10.80;90.50;;;;;;4193877;28;20103;-51
2024/03/19 06:42:42;;;;;;;7.17;3.27;;;11.10;90.00;;;;;;4195142;28;20024;-52
2024/03/19 06:44:43;;;;;;;6.10;3.67;;;11.50;88.60;;;;;;4194424;28;20040;-50
2024/03/19 06:46:44;;;;;;;4.63;3.00;;;11.10;88.30;;;;;;4194983;28;20796;-52
2024/03/19 06:48:45;;;;;;;5.90;2.97;;;11.10;87.50;;;;;;4194677;28;20094;-54
2024/03/19 06:50:48;;;;;;;3.50;2.77;;;10.50;87.70;;;;;;4194411;28;20593;-53
2024/03/19 06:52:50;;;;;;;4.33;3.17;;;10.00;89.30;;;;;;4195006;28;20041;-48
2024/03/19 06:54:52;;;;;;;5.50;3.07;;;9.50;89.20;;;;;;4194163;28;20090;-54
2024/03/19 06:56:53;;;;;;;5.10;3.27;;;9.70;89.90;;;;;;4195057;28;20431;-53
2024/03/19 06:58:54;;;;;;;8.37;3.60;;;9.80;89.10;;;;;;4193029;28;20453;-54
2024/03/19 07:00:56;;;;;;;6.33;3.33;;;9.30;88.90;;;;;;4195346;28;20055;-56
2024/03/19 07:02:57;;;;;;;5.00;3.90;;;9.20;89.70;;;;;;4193774;28;20044;-55
2024/03/19 07:04:58;;;;;;;5.77;3.10;;;9.00;90.20;;;;;;4195365;28;20399;-53
2024/03/19 07:06:59;;;;;;;7.90;4.50;;;8.60;90.30;;;;;;4194125;28;20044;-58
2024/03/19 07:09:01;;;;;;;3.63;3.10;;;9.10;90.30;;;;;;4195171;28;20033;-55
2024/03/19 07:11:02;;;;;;;4.17;3.10;;;9.60;90.20;;;;;;4193632;28;20037;-51
2024/03/19 07:13:04;;;;;;;6.33;3.00;;;10.10;89.50;;;;;;4194846;28;20480;-54
2024/03/19 07:15:09;;;;;;;6.37;3.37;;;10.60;88.20;;;;;;4194138;28;20029;-53
2024/03/19 07:17:11;;;;;;;5.33;3.27;;;10.90;88.10;;;;;;4194425;28;20040;-52
2024/03/19 07:19:13;;;;;;;7.07;4.00;;;11.10;87.70;;;;;;4193968;28;20040;-57
2024/03/19 07:21:14;;;;;;;8.97;3.80;;;11.40;86.90;;;;;;4194033;28;20052;-53
2024/03/19 07:23:15;;;;;;;5.90;4.07;;;11.80;86.80;;;;;;4194116;28;20521;-56
2024/03/19 07:25:17;;;;;;;6.83;3.77;;;12.00;86.10;;;;;;4193722;28;20082;-50
2024/03/19 07:27:18;;;;;;;7.30;4.00;;;12.20;85.50;;;;;;4194872;28;20040;-51
2024/03/19 07:29:20;;;;;;;5.20;3.57;;;11.80;85.20;;;;;;4193370;28;20082;-50
2024/03/19 07:31:22;;;;;;;3.53;2.73;;;11.00;85.10;;;;;;4194324;28;20052;-54
2024/03/19 07:33:23;;;;;;;5.87;3.17;;;10.80;86.30;;;;;;4194147;28;20056;-54
2024/03/19 07:35:25;;;;;;;3.73;2.93;;;10.70;86.80;;;;;;4194580;28;20059;-53
2024/03/19 07:37:27;;;;;;;5.30;3.20;;;10.70;86.50;;;;;;4193800;28;20397;-52
2024/03/19 07:39:28;;;;;;;4.27;3.17;;;10.50;86.30;;;;;;4194867;28;20045;-51
2024/03/19 07:41:30;;;;;;;7.27;3.30;;;9.40;86.20;;;;;;4193125;28;20488;-56
2024/03/19 07:43:31;;;;;;;5.60;3.70;;;9.20;88.50;;;;;;4194388;28;20390;-52
2024/03/19 07:45:33;;;;;;;8.83;5.10;;;8.70;88.30;;;;;;4193007;28;20488;-55
2024/03/19 07:47:35;;;;;;;34.63;18.13;;;8.80;88.70;;;;;;4194484;28;20032;-55
2024/03/19 07:49:36;;;;;;;22.97;11.83;;;8.70;89.20;;;;;;4193762;28;20040;-56
2024/03/19 07:51:38;;;;;;;39.83;18.83;;;8.70;89.40;;;;;;4193683;28;20542;-51
2024/03/19 07:53:40;;;;;;;50.80;23.40;;;8.90;89.50;;;;;;4193784;28;20082;-57
2024/03/19 07:55:41;;;;;;;36.73;18.23;;;9.20;90.10;;;;;;4193805;28;20353;-56
2024/03/19 07:57:42;;;;;;;25.90;11.77;;;9.80;89.20;;;;;;4193671;28;20058;-52
2024/03/19 07:59:43;;;;;;;16.37;9.00;;;10.20;88.60;;;;;;4193441;28;20125;-50
2024/03/19 08:01:45;;;;;;;43.63;21.43;;;10.00;87.70;;;;;;4194488;28;20862;-55
2024/03/19 08:03:46;;;;;;;22.53;11.80;;;9.50;87.70;;;;;;4193657;28;20431;-57
2024/03/19 08:05:56;;;;;;;14.33;7.93;;;9.20;87.90;;;;;;4194488;28;20070;-54
2024/03/19 08:07:58;;;;;;;18.00;10.40;;;8.80;88.20;;;;;;4192942;28;20040;-52
2024/03/19 08:09:59;;;;;;;9.83;6.17;;;8.60;89.40;;;;;;4194241;28;20070;-52
2024/03/19 08:12:05;;;;;;;10.27;5.90;;;9.10;89.80;;;;;;4192891;28;20090;-55
2024/03/19 08:14:06;;;;;;;6.67;4.13;;;9.60;89.10;;;;;;4194029;28;20048;-54
2024/03/19 08:16:08;;;;;;;14.27;7.80;;;10.00;87.90;;;;;;4193208;28;20078;-51
2024/03/19 08:18:09;;;;;;;13.13;7.53;;;9.80;87.50;;;;;;4194380;28;20094;-56
2024/03/19 08:20:13;;;;;;;7.17;4.23;;;9.60;88.00;;;;;;4192364;28;20062;-53
2024/03/19 08:22:14;;;;;;;3.17;2.37;;;9.00;87.90;;;;;;4193704;28;20403;-52
2024/03/19 08:24:16;;;;;;;3.43;2.70;;;9.00;88.00;;;;;;4192995;28;20138;-55
2024/03/19 08:26:17;;;;;;;4.90;2.20;;;9.30;88.50;;;;;;4193606;28;20094;-54
2024/03/19 08:28:19;;;;;;;4.00;2.70;;;9.30;86.50;;;;;;4193698;28;20028;-56
2024/03/19 08:30:20;;;;;;;8.07;4.37;;;9.10;87.80;;;;;;4192890;28;20048;-55
2024/03/19 08:32:22;;;;;;;14.43;7.20;;;9.40;87.90;;;;;;4193363;28;20488;-56
2024/03/19 08:34:23;;;;;;;10.90;6.03;;;9.40;87.30;;;;;;4193298;28;20547;-58
2024/03/19 08:36:24;;;;;;;14.50;8.17;;;9.60;87.60;;;;;;4193830;28;20098;-53
2024/03/19 08:38:27;;;;;;;3.50;2.27;;;9.60;87.10;;;;;;4192751;28;20481;-55
2024/03/19 08:40:29;;;;;;;5.73;2.37;;;9.00;85.30;;;;;;4193684;28;20109;-54
2024/03/19 08:42:33;;;;;;;3.40;1.90;;;8.20;86.60;;;;;;4192701;28;20048;-55
2024/03/19 08:44:34;;;;;;;3.63;2.00;;;8.00;87.60;;;;;;4193524;28;20036;-50
2024/03/19 08:46:35;;;;;;;3.63;1.63;;;7.20;86.80;;;;;;4192964;28;20388;-55
2024/03/19 08:48:37;;;;;;;3.23;1.20;;;6.90;88.80;;;;;;4193678;28;20094;-52
2024/03/19 08:50:38;;;;;;;5.47;2.00;;;6.40;89.10;;;;;;4192660;28;20041;-58
2024/03/19 08:52:40;;;;;;;4.63;1.60;;;6.50;90.00;;;;;;4194050;28;20059;-56
2024/03/19 08:54:41;;;;;;;4.37;1.63;;;6.90;89.30;;;;;;4192879;28;20040;-52
2024/03/19 08:56:42;;;;;;;4.93;2.43;;;6.70;88.40;;;;;;4193537;28;20028;-54
2024/03/19 08:58:44;;;;;;;2.67;1.90;;;7.00;89.20;;;;;;4192956;28;20151;-51
2024/03/19 09:00:45;;;;;;;4.13;1.40;;;6.80;88.60;;;;;;4192915;28;20037;-55
2024/03/19 09:02:46;;;;;;;4.73;2.33;;;6.70;89.40;;;;;;4193587;28;20017;-54
2024/03/19 09:04:47;;;;;;;3.43;1.23;;;7.10;89.90;;;;;;4193205;28;20621;-58
2024/03/19 09:06:49;;;;;;;1.90;1.50;;;7.30;89.40;;;;;;4193432;28;20365;-48
2024/03/19 09:08:50;;;;;;;2.73;1.40;;;7.70;89.30;;;;;;4192203;28;20487;-53
2024/03/19 09:10:52;;;;;;;5.40;2.00;;;7.70;86.90;;;;;;4193245;28;20082;-56
2024/03/19 09:12:54;;;;;;;2.83;1.77;;;7.50;88.50;;;;;;4192374;28;20099;-53
2024/03/19 09:14:55;;;;;;;3.93;2.63;;;7.80;88.40;;;;;;4193370;28;20112;-57
2024/03/19 09:16:56;;;;;;;4.33;2.73;;;7.80;88.10;;;;;;4192854;28;20036;-57
2024/03/19 09:18:57;;;;;;;1.73;1.17;;;7.60;87.20;;;;;;4194074;28;20032;-53
2024/03/19 09:20:59;;;;;;;2.27;1.90;;;7.70;88.10;;;;;;4192405;28;20109;-54
2024/03/19 09:23:00;;;;;;;6.00;2.37;;;7.70;88.00;;;;;;4195671;28;20476;-54
2024/03/19 09:25:02;;;;;;;2.07;1.20;;;8.00;88.40;;;;;;4195143;28;20094;-58
2024/03/19 09:27:06;;;;;;;2.83;1.17;;;7.80;85.00;;;;;;4196170;28;20049;-54
2024/03/19 09:29:07;;;;;;;5.43;0.77;;;7.30;83.40;;;;;;4195460;28;20461;-52
2024/03/19 09:31:08;;;;;;;2.13;1.47;;;6.80;84.90;;;;;;4195726;28;20098;-53
2024/03/19 09:33:10;;;;;;;4.83;1.13;;;6.90;86.70;;;;;;4195859;28;20044;-52
2024/03/19 09:35:11;;;;;;;1.67;0.70;;;7.20;86.30;;;;;;4196001;28;20465;-53
2024/03/19 09:37:12;;;;;;;1.00;0.90;;;7.50;85.70;;;;;;4195892;28;20041;-54
2024/03/19 09:39:15;;;;;;;1.63;0.73;;;7.70;85.80;;;;;;4195447;28;20641;-53
2024/03/19 09:41:20;;;;;;;2.20;1.60;;;7.90;85.10;;;;;;4195966;28;20179;-57
2024/03/19 09:43:23;;;;;;;1.17;0.90;;;7.90;84.60;;;;;;4195371;28;20068;-56
2024/03/19 09:45:29;;;;;;;1.30;1.10;;;7.80;84.70;;;;;;4195846;28;20040;-54
2024/03/19 09:47:32;;;;;;;1.13;1.00;;;7.70;82.50;;;;;;4194948;28;20052;-57
2024/03/19 09:49:33;;;;;;;0.90;0.70;;;7.60;84.10;;;;;;4196083;28;20044;-56
2024/03/19 09:51:38;;;;;;;1.13;0.70;;;7.50;83.20;;;;;;4195073;28;20047;-57
2024/03/19 09:53:41;;;;;;;3.53;1.87;;;7.60;84.80;;;;;;4195784;28;20427;-51
2024/03/19 09:55:45;;;;;;;4.37;1.80;;;7.70;84.90;;;;;;4194327;28;20346;-51
2024/03/19 09:57:47;;;;;;;4.00;2.57;;;8.00;85.00;;;;;;4195759;28;20101;-53
2024/03/19 09:59:50;;;;;;;1.97;1.40;;;8.00;84.60;;;;;;4195162;28;20040;-52
2024/03/19 10:01:54;;;;;;;2.40;1.60;;;8.10;83.70;;;;;;4196012;28;20025;-52
2024/03/19 10:03:56;;;;;;;1.00;0.90;;;8.10;83.90;;;;;;4194688;28;20395;-52
2024/03/19 10:05:57;;;;;;;1.83;1.00;;;8.10;84.30;;;;;;4195850;28;20093;-52
2024/03/19 10:07:59;;;;;;;2.70;0.90;;;8.10;84.40;;;;;;4195480;28;20040;-52
2024/03/19 10:10:00;;;;;;;5.30;1.50;;;7.90;82.50;;;;;;4195381;28;20036;-56
2024/03/19 10:12:02;;;;;;;1.43;0.80;;;7.50;83.20;;;;;;4195638;28;20028;-50
2024/03/19 10:14:03;;;;;;;2.77;0.83;;;7.30;82.80;;;;;;4194187;28;20040;-55
2024/03/19 10:16:05;;;;;;;2.37;1.17;;;7.20;83.00;;;;;;4195032;28;20048;-56
2024/03/19 10:18:11;;;;;;;0.73;0.70;;;7.20;83.50;;;;;;4194704;28;20024;-57
2024/03/19 10:20:12;;;;;;;1.33;1.00;;;7.20;82.80;;;;;;4195134;28;20045;-53
2024/03/19 10:22:14;;;;;;;2.37;1.10;;;7.20;83.40;;;;;;4194103;28;20082;-52
2024/03/19 10:24:16;;;;;;;2.27;0.70;;;7.40;83.90;;;;;;4195718;28;20028;-53
2024/03/19 10:26:18;;;;;;;1.73;1.00;;;7.50;83.30;;;;;;4193859;28;20040;-52
2024/03/19 10:28:20;;;;;;;4.20;0.80;;;7.50;83.70;;;;;;4195642;28;20082;-56
2024/03/19 10:30:21;;;;;;;1.90;1.13;;;7.40;84.10;;;;;;4194504;28;20028;-55
2024/03/19 10:32:24;;;;;;;0.93;0.60;;;7.40;83.50;;;;;;4193778;28;20067;-56
2024/03/19 10:34:25;;;;;;;1.27;0.80;;;7.30;83.40;;;;;;4194048;28;20041;-52
2024/03/19 10:36:35;;;;;;;1.00;0.50;;;7.40;83.90;;;;;;4195527;28;20021;-57
2024/03/19 10:38:37;;;;;;;2.10;0.82;;;7.40;83.20;;;;;;4194294;28;20040;-56
2024/03/19 10:40:39;;;;;;;1.23;0.70;;;7.40;83.50;;;;;;4194616;28;20526;-50
2024/03/19 10:42:42;;;;;;;1.23;0.77;;;7.20;81.40;;;;;;4194340;28;20048;-52